Latest Coastal Weather Observations for Rosslyn Bay Harbour

IDQ60701

Issued at 3:31 am EST Wednesday 25 May 2016 (issued every 10 minutes, with the page automatically refreshed every 10 minutes)

About coastal observations | Map of coastal stations | Coastal observations for QLD | Marine services | Other Formats
Station Details ID: 033208 Name: ROSSLYN BAY NTC AWS Lat: -23.16 Lon: 150.79 Height: 0.0 m
Data from the previous 72 hours. | See also: Recent months for locations in Queensland
Date/Time
EST
Temp

°C
Wind Pressure Rain
since 9am
mm
Weather Cloud Vis
km
Sea
Height
m
Swell
Dir
 
Speed
knots
Gust
knots
hPa Trend Height
m
Period
s
Dir
25/03:30am 20.2 SSW 4 6 1016.0 - - - - - - - - -
25/03:00am 21.4 S 3 6 1016.0 - - - - - - - - -
25/02:30am 21.5 SW 2 4 1015.9 - - - - - - - - -
25/02:00am 22.0 SW 1 4 1016.2 - - - - - - - - -
25/01:30am 22.2 SSW 1 4 1016.4 - - - - - - - - -
25/01:00am 22.4 SW 1 2 1016.4 - - - - - - - - -
25/12:30am 22.0 WSW 1 1 1016.2 - - - - - - - - -
25/12:00am 23.0 SSW 1 2 1016.5 - - - - - - - - -
 
Date/Time
EST
Temp

°C
Wind Pressure Rain
since 9am
mm
Weather Cloud Vis
km
Sea
Height
m
Swell
Dir
 
Speed
knots
Gust
knots
hPa Trend Height
m
Period
s
Dir
24/11:30pm 23.0 SSW 1 3 1016.7 - - - - - - - - -
24/11:00pm 22.6 SW 1 2 1016.7 - - - - - - - - -
24/10:30pm 23.0 SW 1 2 1016.8 - - - - - - - - -
24/10:00pm 23.3 SW 1 2 1017.1 - - - - - - - - -
24/09:30pm 24.0 NNE 2 4 1017.1 - - - - - - - - -
24/09:00pm 23.8 NW 1 4 1017.1 - - - - - - - - -
24/08:30pm 24.0 N 3 4 1016.9 - - - - - - - - -
24/08:00pm 24.1 N 3 4 1016.9 - - - - - - - - -
24/07:30pm 23.6 N 4 5 1016.8 - - - - - - - - -
24/07:00pm 23.9 N 4 5 1016.7 - - - - - - - - -
24/06:30pm 24.1 N 5 7 1016.1 - - - - - - - - -
24/06:00pm 24.2 N 6 8 1015.7 - - - - - - - - -
24/05:30pm 24.2 N 7 10 1015.6 - - - - - - - - -
24/05:00pm 24.3 NNE 9 12 1015.5 - - - - - - - - -
24/04:30pm 24.3 NNE 6 9 1015.1 - - - - - - - - -
24/04:00pm 24.5 N 5 7 1014.9 - - - - - - - - -
24/03:30pm 24.7 NNE 5 7 1014.7 - - - - - - - - -
24/03:00pm 24.6 NNE 5 7 1014.6 - - - - - - - - -
24/02:30pm 24.4 NNE 4 6 1014.7 - - - - - - - - -
24/02:00pm 24.5 NE 4 6 1014.7 - - - - - - - - -
24/01:30pm 24.1 ENE 3 4 1014.8 - - - - - - - - -
24/01:00pm 24.6 ENE 2 5 1014.8 - - - - - - - - -
24/12:30pm 23.6 ENE 4 6 1015.4 - - - - - - - - -
24/12:00pm 23.9 ENE 5 7 1015.9 - - - - - - - - -
24/11:30am 23.6 ENE 5 7 1016.5 - - - - - - - - -
24/11:00am 23.5 ENE 5 6 1016.8 - - - - - - - - -
24/10:30am 24.4 N 2 3 1017.2 - - - - - - - - -
24/10:00am 23.2 NW 2 4 1017.6 - - - - - - - - -
24/09:30am 22.8 SW 3 4 1017.8 - - - - - - - - -
24/09:00am 22.5 W 2 4 1018.0 - - - - - - - - -
24/08:30am 21.8 WSW 2 4 1017.7 - - - - - - - - -
24/08:00am 20.9 W 3 4 1017.7 - - - - - - - - -
24/07:30am 20.4 WSW 3 5 1017.4 - - - - - - - - -
24/07:00am 20.6 WSW 1 3 1017.2 - - - - - - - - -
24/06:30am 20.2 W 2 4 1017.0 - - - - - - - - -
24/06:00am 20.4 W 3 4 1016.9 - - - - - - - - -
24/05:30am 20.2 WSW 3 5 1016.9 - - - - - - - - -
24/05:00am 20.4 WSW 3 5 1016.8 - - - - - - - - -
24/04:30am 20.7 W 3 4 1016.9 - - - - - - - - -
24/04:00am 21.2 W 2 4 1016.7 - - - - - - - - -
24/03:30am 21.3 W 2 3 1016.9 - - - - - - - - -
24/03:00am 21.2 WSW 2 3 1017.0 - - - - - - - - -
24/02:30am 21.1 W 2 3 1017.1 - - - - - - - - -
24/02:00am 21.7 W 1 2 1017.2 - - - - - - - - -
24/01:30am 21.8 SSW 1 1 1017.2 - - - - - - - - -
24/01:00am 21.9 S 2 3 1017.5 - - - - - - - - -
24/12:30am 22.0 S 3 4 1017.8 - - - - - - - - -
24/12:00am 22.0 WSW 1 2 1018.0 - - - - - - - - -
 
Date/Time
EST
Temp

°C
Wind Pressure Rain
since 9am
mm
Weather Cloud Vis
km
Sea
Height
m
Swell
Dir
 
Speed
knots
Gust
knots
hPa Trend Height
m
Period
s
Dir
23/11:30pm 22.1 S 2 2 1017.8 - - - - - - - - -
23/11:00pm 22.8 WSW 1 1 1018.0 - - - - - - - - -
23/10:30pm 22.7 W 1 2 1018.2 - - - - - - - - -
23/10:00pm 23.9 NNE 3 5 1018.1 - - - - - - - - -
23/09:30pm 23.8 NE 4 6 1018.1 - - - - - - - - -
23/09:00pm 23.8 ENE 3 6 1018.2 - - - - - - - - -
23/08:30pm 23.8 ENE 5 7 1018.2 - - - - - - - - -
23/08:00pm 23.7 ENE 5 6 1018.3 - - - - - - - - -
23/07:30pm 23.8 NE 6 8 1018.2 - - - - - - - - -
23/07:00pm 23.7 NE 6 7 1018.1 - - - - - - - - -
23/06:30pm 23.7 NE 6 7 1018.0 - - - - - - - - -
23/06:00pm 23.6 NE 5 8 1017.7 - - - - - - - - -
23/05:30pm 23.6 NE 7 10 1017.4 - - - - - - - - -
23/05:00pm 23.7 ENE 4 9 1016.9 - - - - - - - - -
23/04:30pm 23.8 ENE 5 9 1016.8 - - - - - - - - -
23/04:00pm 24.0 E 2 6 1016.8 - - - - - - - - -
23/03:30pm 23.9 ESE 2 7 1016.7 - - - - - - - - -
23/03:00pm 24.2 ENE 2 7 1016.5 - - - - - - - - -
23/02:30pm 24.3 NW 2 8 1016.6 - - - - - - - - -
23/02:00pm 24.0 SSW 3 5 1016.7 - - - - - - - - -
23/01:30pm 23.8 SSW 2 5 1017.0 - - - - - - - - -
23/01:00pm 23.7 S 5 9 1017.4 - - - - - - - - -
23/12:30pm 23.4 S 6 10 1018.1 - - - - - - - - -
23/12:00pm 23.2 S 7 12 1018.6 - - - - - - - - -
23/11:30am 23.1 S 7 11 1019.1 - - - - - - - - -
23/11:00am 23.1 S 6 10 1019.3 - - - - - - - - -
23/10:30am 22.7 S 4 7 1019.2 - - - - - - - - -
23/10:00am 22.6 S 4 7 1019.8 - - - - - - - - -
23/09:30am 22.6 S 5 10 1019.7 - - - - - - - - -
23/09:00am 22.2 S 5 10 1019.6 - - - - - - - - -
23/08:30am 22.3 S 5 11 1019.7 - - - - - - - - -
23/08:00am 22.0 S 3 7 1019.2 - - - - - - - - -
23/07:30am 20.6 SSW 4 6 1019.1 - - - - - - - - -
23/07:00am 19.9 SSW 3 6 1019.0 - - - - - - - - -
23/06:30am 20.1 SSW 2 5 1018.9 - - - - - - - - -
23/06:00am 20.3 SSW 4 9 1019.0 - - - - - - - - -
23/05:30am 20.2 SW 4 5 1018.6 - - - - - - - - -
23/05:00am 20.3 SSW 3 5 1018.1 - - - - - - - - -
23/04:30am 20.2 SSW 4 5 1018.7 - - - - - - - - -
23/04:00am 20.4 SSW 4 5 1018.8 - - - - - - - - -
23/03:30am 20.9 SSW 5 7 1018.7 - - - - - - - - -
23/03:00am 21.0 S 3 6 1018.6 - - - - - - - - -
23/02:30am 21.4 S 3 6 1019.0 - - - - - - - - -
23/02:00am 21.8 SSW 5 8 1019.1 - - - - - - - - -
23/01:30am 23.8 S 5 8 1019.3 - - - - - - - - -
23/01:00am 23.8 S 4 8 1019.2 - - - - - - - - -
23/12:30am 23.8 S 7 13 1019.2 - - - - - - - - -
23/12:00am 23.8 S 7 11 1019.3 - - - - - - - - -
 
Date/Time
EST
Temp

°C
Wind Pressure Rain
since 9am
mm
Weather Cloud Vis
km
Sea
Height
m
Swell
Dir
 
Speed
knots
Gust
knots
hPa Trend Height
m
Period
s
Dir
22/11:30pm 23.9 S 7 11 1019.5 - - - - - - - - -
22/11:00pm 23.9 S 5 10 1019.7 - - - - - - - - -
22/10:30pm 23.9 S 5 9 1019.8 - - - - - - - - -
22/10:00pm 24.1 S 5 10 1020.3 - - - - - - - - -
22/09:30pm 24.1 SSW 5 11 1020.2 - - - - - - - - -
22/09:00pm 24.1 S 5 10 1020.2 - - - - - - - - -
22/08:30pm 24.1 SW 4 9 1020.3 - - - - - - - - -
22/08:00pm 24.1 SSW 4 9 1020.4 - - - - - - - - -
22/07:30pm 24.2 S 5 10 1020.3 - - - - - - - - -
22/07:00pm 23.1 S 8 12 1020.2 - - - - - - - - -
22/06:30pm 22.7 S 9 16 1019.8 - - - - - - - - -
22/06:00pm 24.1 S 5 10 1019.6 - - - - - - - - -
22/05:30pm 24.1 S 4 9 1019.7 - - - - - - - - -
22/05:00pm 24.2 S 6 11 1019.5 - - - - - - - - -
22/04:30pm 23.4 S 2 4 1019.3 - - - - - - - - -
22/04:00pm 23.4 SSW 1 4 1019.2 - - - - - - - - -
22/03:30pm 23.2 ENE 6 9 1019.2 - - - - - - - - -
22/03:00pm 22.8 SSW 3 6 1019.3 - - - - - - - - -
22/02:30pm 23.1 SW 5 11 1019.1 - - - - - - - - -
22/02:00pm 24.0 WSW 4 8 1019.2 - - - - - - - - -
22/01:30pm 24.2 SW 4 12 1019.3 - - - - - - - - -
22/01:00pm 24.2 SSW 4 10 1019.5 - - - - - - - - -
22/12:30pm 24.0 S 6 12 1020.0 - - - - - - - - -
22/12:00pm 23.8 WSW 5 11 1020.7 - - - - - - - - -
22/11:30am 23.8 W 4 13 1021.4 - - - - - - - - -
22/11:00am 23.4 WSW 4 10 1021.7 - - - - - - - - -
22/10:30am 23.5 S 6 11 1022.2 - - - - - - - - -
22/10:00am 23.4 S 9 14 1022.0 - - - - - - - - -
22/09:30am 24.0 S 10 13 1022.2 - - - - - - - - -
22/09:00am 23.3 S 6 12 1022.1 - - - - - - - - -
22/08:30am 22.8 S 6 14 1021.7 - - - - - - - - -
22/08:00am 22.6 S 6 11 1021.5 - - - - - - - - -
22/07:30am 22.1 S 6 10 1021.5 - - - - - - - - -
22/07:00am 21.8 S 5 11 1021.7 - - - - - - - - -
22/06:30am 24.0 S 6 10 1021.5 - - - - - - - - -
22/06:00am 24.0 S 7 11 1020.9 - - - - - - - - -
22/05:30am 24.0 S 5 10 1020.3 - - - - - - - - -
22/05:00am 23.9 S 4 9 1020.1 - - - - - - - - -
22/04:30am 23.9 S 5 10 1020.3 - - - - - - - - -
22/04:00am 23.9 S 5 12 1020.0 - - - - - - - - -

Other Formats:

Comma delimited format used in spreadsheet applications
http://www.bom.gov.au/fwo/IDQ60701/IDQ60701.95298.axf

JavaScript Object Notation format (JSON) in row-major order
http://www.bom.gov.au/fwo/IDQ60701/IDQ60701.95298.json